Bennett, Wisconsin
Current Conditions -  °F | °C
As of 4:35 PM on Friday 19 Dec 2014 (Local Time) from KOLG Reporting Station
Overcast Overcast  
Wind Chill: 21°   Ceiling: 2100
Heat Index: 27°   Visibility: 10mi
Dew Point: 21°   Wind: 5mph
Humidity: 80%   Direction: 160°SSE
Pressure: 30.19"   Gusts: NA
Location:  46.3544°N, 91.6708°W
Report Text: KOLG 192235Z AUTO 16004KT 10SM OVC021 M03/M06 A3019 RMK AO1
Loading
Personal Weather Stations






























Interactive Weather Map New forecast layout! Learn more

10-Day Weather Forecast

Advertisements
Track Severe Weather on mobile